sensor_id;sensor_type;location;lat;lon;timestamp;P1;durP1;ratioP1;P2;durP2;ratioP2
15486;SDS011;7845;53.698;10.078;2022-08-21T00:01:52;3.73;;;1.53;;
15486;SDS011;7845;53.698;10.078;2022-08-21T00:04:18;3.67;;;1.80;;
15486;SDS011;7845;53.698;10.078;2022-08-21T00:06:43;3.93;;;2.23;;
15486;SDS011;7845;53.698;10.078;2022-08-21T00:09:09;4.97;;;2.03;;
15486;SDS011;7845;53.698;10.078;2022-08-21T00:11:35;3.43;;;1.80;;
15486;SDS011;7845;53.698;10.078;2022-08-21T00:14:02;4.17;;;1.93;;
15486;SDS011;7845;53.698;10.078;2022-08-21T00:16:29;3.77;;;1.83;;
15486;SDS011;7845;53.698;10.078;2022-08-21T00:18:54;4.10;;;2.40;;
15486;SDS011;7845;53.698;10.078;2022-08-21T00:21:20;5.30;;;2.37;;
15486;SDS011;7845;53.698;10.078;2022-08-21T00:23:45;4.43;;;1.87;;
15486;SDS011;7845;53.698;10.078;2022-08-21T00:26:10;4.13;;;2.33;;
15486;SDS011;7845;53.698;10.078;2022-08-21T00:28:36;6.87;;;3.00;;
15486;SDS011;7845;53.698;10.078;2022-08-21T00:31:02;6.17;;;2.83;;
15486;SDS011;7845;53.698;10.078;2022-08-21T00:33:29;4.83;;;3.10;;
15486;SDS011;7845;53.698;10.078;2022-08-21T00:35:55;8.00;;;3.77;;
15486;SDS011;7845;53.698;10.078;2022-08-21T00:38:20;5.07;;;2.83;;
15486;SDS011;7845;53.698;10.078;2022-08-21T00:40:53;5.00;;;2.63;;
15486;SDS011;7845;53.698;10.078;2022-08-21T00:43:23;5.33;;;2.80;;
15486;SDS011;7845;53.698;10.078;2022-08-21T00:45:53;4.20;;;1.87;;
15486;SDS011;7845;53.698;10.078;2022-08-21T00:48:20;4.93;;;2.23;;
15486;SDS011;7845;53.698;10.078;2022-08-21T00:50:50;4.00;;;1.60;;
15486;SDS011;7845;53.698;10.078;2022-08-21T00:53:20;3.57;;;1.80;;
15486;SDS011;7845;53.698;10.078;2022-08-21T00:55:47;4.30;;;2.20;;
15486;SDS011;7845;53.698;10.078;2022-08-21T00:58:13;4.77;;;2.40;;
15486;SDS011;7845;53.698;10.078;2022-08-21T01:00:41;4.80;;;2.20;;
15486;SDS011;7845;53.698;10.078;2022-08-21T01:03:11;5.23;;;2.30;;
15486;SDS011;7845;53.698;10.078;2022-08-21T01:05:39;5.20;;;2.57;;
15486;SDS011;7845;53.698;10.078;2022-08-21T01:08:06;4.20;;;1.87;;
15486;SDS011;7845;53.698;10.078;2022-08-21T01:10:33;4.47;;;2.53;;
15486;SDS011;7845;53.698;10.078;2022-08-21T01:13:00;3.60;;;2.00;;
15486;SDS011;7845;53.698;10.078;2022-08-21T01:15:30;4.70;;;2.57;;
15486;SDS011;7845;53.698;10.078;2022-08-21T01:17:58;4.80;;;2.80;;
15486;SDS011;7845;53.698;10.078;2022-08-21T01:20:24;5.53;;;3.30;;
15486;SDS011;7845;53.698;10.078;2022-08-21T01:22:50;6.33;;;3.30;;
15486;SDS011;7845;53.698;10.078;2022-08-21T01:25:17;5.10;;;2.80;;
15486;SDS011;7845;53.698;10.078;2022-08-21T01:27:44;7.17;;;3.10;;
15486;SDS011;7845;53.698;10.078;2022-08-21T01:30:11;6.40;;;3.00;;
15486;SDS011;7845;53.698;10.078;2022-08-21T01:32:48;5.73;;;2.80;;
15486;SDS011;7845;53.698;10.078;2022-08-21T01:35:14;5.77;;;3.60;;
15486;SDS011;7845;53.698;10.078;2022-08-21T01:37:41;6.43;;;2.97;;
15486;SDS011;7845;53.698;10.078;2022-08-21T01:40:07;5.33;;;3.00;;
15486;SDS011;7845;53.698;10.078;2022-08-21T01:42:33;8.23;;;3.57;;
15486;SDS011;7845;53.698;10.078;2022-08-21T01:45:00;5.00;;;3.07;;
15486;SDS011;7845;53.698;10.078;2022-08-21T01:47:25;6.07;;;3.37;;
15486;SDS011;7845;53.698;10.078;2022-08-21T01:49:51;5.37;;;2.90;;
15486;SDS011;7845;53.698;10.078;2022-08-21T01:52:17;6.40;;;3.17;;
15486;SDS011;7845;53.698;10.078;2022-08-21T01:54:42;6.83;;;3.30;;
15486;SDS011;7845;53.698;10.078;2022-08-21T01:57:08;4.50;;;2.83;;
15486;SDS011;7845;53.698;10.078;2022-08-21T01:59:34;5.30;;;3.13;;
15486;SDS011;7845;53.698;10.078;2022-08-21T02:02:00;4.50;;;2.80;;
15486;SDS011;7845;53.698;10.078;2022-08-21T02:04:26;5.00;;;3.10;;
15486;SDS011;7845;53.698;10.078;2022-08-21T02:06:51;6.60;;;2.93;;
15486;SDS011;7845;53.698;10.078;2022-08-21T02:09:17;5.17;;;2.67;;
15486;SDS011;7845;53.698;10.078;2022-08-21T02:11:43;6.83;;;2.70;;
15486;SDS011;7845;53.698;10.078;2022-08-21T02:14:12;5.13;;;2.93;;
15486;SDS011;7845;53.698;10.078;2022-08-21T02:16:40;4.90;;;3.10;;
15486;SDS011;7845;53.698;10.078;2022-08-21T02:19:06;5.37;;;3.07;;
15486;SDS011;7845;53.698;10.078;2022-08-21T02:21:32;5.30;;;2.87;;
15486;SDS011;7845;53.698;10.078;2022-08-21T02:23:57;3.90;;;2.60;;
15486;SDS011;7845;53.698;10.078;2022-08-21T02:26:23;5.10;;;3.20;;
15486;SDS011;7845;53.698;10.078;2022-08-21T02:28:48;5.40;;;3.10;;
15486;SDS011;7845;53.698;10.078;2022-08-21T02:31:14;5.03;;;3.20;;
15486;SDS011;7845;53.698;10.078;2022-08-21T02:33:39;4.77;;;2.97;;
15486;SDS011;7845;53.698;10.078;2022-08-21T02:36:05;5.33;;;3.00;;
15486;SDS011;7845;53.698;10.078;2022-08-21T02:38:33;4.83;;;2.50;;
15486;SDS011;7845;53.698;10.078;2022-08-21T02:41:02;5.60;;;2.70;;
15486;SDS011;7845;53.698;10.078;2022-08-21T02:43:29;5.37;;;3.00;;
15486;SDS011;7845;53.698;10.078;2022-08-21T02:45:56;5.90;;;3.23;;
15486;SDS011;7845;53.698;10.078;2022-08-21T02:48:23;4.43;;;2.87;;
15486;SDS011;7845;53.698;10.078;2022-08-21T02:50:52;6.43;;;3.03;;
15486;SDS011;7845;53.698;10.078;2022-08-21T02:53:26;4.80;;;3.20;;
15486;SDS011;7845;53.698;10.078;2022-08-21T02:55:52;5.80;;;2.97;;
15486;SDS011;7845;53.698;10.078;2022-08-21T02:58:19;4.87;;;3.33;;
15486;SDS011;7845;53.698;10.078;2022-08-21T03:00:48;4.80;;;2.87;;
15486;SDS011;7845;53.698;10.078;2022-08-21T03:03:14;5.07;;;2.83;;
15486;SDS011;7845;53.698;10.078;2022-08-21T03:05:42;4.80;;;3.23;;
15486;SDS011;7845;53.698;10.078;2022-08-21T03:08:09;5.73;;;3.00;;
15486;SDS011;7845;53.698;10.078;2022-08-21T03:10:36;5.10;;;2.97;;
15486;SDS011;7845;53.698;10.078;2022-08-21T03:13:05;4.60;;;3.50;;
15486;SDS011;7845;53.698;10.078;2022-08-21T03:15:31;6.23;;;3.40;;
15486;SDS011;7845;53.698;10.078;2022-08-21T03:17:57;3.90;;;2.53;;
15486;SDS011;7845;53.698;10.078;2022-08-21T03:20:24;7.33;;;3.73;;
15486;SDS011;7845;53.698;10.078;2022-08-21T03:22:51;5.00;;;3.10;;
15486;SDS011;7845;53.698;10.078;2022-08-21T03:25:18;6.33;;;3.20;;
15486;SDS011;7845;53.698;10.078;2022-08-21T03:27:46;5.77;;;3.63;;
15486;SDS011;7845;53.698;10.078;2022-08-21T03:30:13;6.60;;;3.23;;
15486;SDS011;7845;53.698;10.078;2022-08-21T03:32:38;5.83;;;3.00;;
15486;SDS011;7845;53.698;10.078;2022-08-21T03:35:06;5.50;;;3.30;;
15486;SDS011;7845;53.698;10.078;2022-08-21T03:37:33;4.93;;;3.50;;
15486;SDS011;7845;53.698;10.078;2022-08-21T03:39:59;4.70;;;3.17;;
15486;SDS011;7845;53.698;10.078;2022-08-21T03:42:25;6.60;;;4.00;;
15486;SDS011;7845;53.698;10.078;2022-08-21T03:44:50;7.03;;;3.70;;
15486;SDS011;7845;53.698;10.078;2022-08-21T03:47:16;6.93;;;4.23;;
15486;SDS011;7845;53.698;10.078;2022-08-21T03:49:41;5.87;;;3.60;;
15486;SDS011;7845;53.698;10.078;2022-08-21T03:52:07;5.90;;;3.90;;
15486;SDS011;7845;53.698;10.078;2022-08-21T03:54:33;6.63;;;3.47;;
15486;SDS011;7845;53.698;10.078;2022-08-21T03:56:58;5.90;;;3.57;;
15486;SDS011;7845;53.698;10.078;2022-08-21T03:59:23;5.87;;;3.30;;
15486;SDS011;7845;53.698;10.078;2022-08-21T04:01:56;5.33;;;3.70;;
15486;SDS011;7845;53.698;10.078;2022-08-21T04:04:23;7.37;;;3.60;;
15486;SDS011;7845;53.698;10.078;2022-08-21T04:06:49;5.53;;;3.67;;
15486;SDS011;7845;53.698;10.078;2022-08-21T04:09:15;6.87;;;3.43;;
15486;SDS011;7845;53.698;10.078;2022-08-21T04:11:42;4.90;;;3.30;;
15486;SDS011;7845;53.698;10.078;2022-08-21T04:14:07;6.23;;;3.57;;
15486;SDS011;7845;53.698;10.078;2022-08-21T04:16:33;5.00;;;2.80;;
15486;SDS011;7845;53.698;10.078;2022-08-21T04:18:59;9.40;;;3.93;;
15486;SDS011;7845;53.698;10.078;2022-08-21T04:21:24;5.27;;;3.37;;
15486;SDS011;7845;53.698;10.078;2022-08-21T04:23:49;5.50;;;3.80;;
15486;SDS011;7845;53.698;10.078;2022-08-21T04:26:15;5.40;;;3.60;;
15486;SDS011;7845;53.698;10.078;2022-08-21T04:28:40;7.33;;;3.80;;
15486;SDS011;7845;53.698;10.078;2022-08-21T04:31:06;7.00;;;4.00;;
15486;SDS011;7845;53.698;10.078;2022-08-21T04:33:33;6.13;;;4.00;;
15486;SDS011;7845;53.698;10.078;2022-08-21T04:35:59;6.40;;;3.10;;
15486;SDS011;7845;53.698;10.078;2022-08-21T04:38:24;9.80;;;4.10;;
15486;SDS011;7845;53.698;10.078;2022-08-21T04:40:49;6.90;;;4.00;;
15486;SDS011;7845;53.698;10.078;2022-08-21T04:43:15;5.57;;;3.20;;
15486;SDS011;7845;53.698;10.078;2022-08-21T04:45:43;5.10;;;3.23;;
15486;SDS011;7845;53.698;10.078;2022-08-21T04:48:12;5.10;;;3.43;;
15486;SDS011;7845;53.698;10.078;2022-08-21T04:50:45;5.50;;;3.27;;
15486;SDS011;7845;53.698;10.078;2022-08-21T04:53:18;5.80;;;3.17;;
15486;SDS011;7845;53.698;10.078;2022-08-21T04:55:49;5.83;;;2.93;;
15486;SDS011;7845;53.698;10.078;2022-08-21T04:58:17;5.27;;;3.40;;
15486;SDS011;7845;53.698;10.078;2022-08-21T05:00:45;5.40;;;3.33;;
15486;SDS011;7845;53.698;10.078;2022-08-21T05:03:12;8.90;;;3.50;;
15486;SDS011;7845;53.698;10.078;2022-08-21T05:05:39;5.03;;;3.13;;
15486;SDS011;7845;53.698;10.078;2022-08-21T05:08:05;6.33;;;3.50;;
15486;SDS011;7845;53.698;10.078;2022-08-21T05:10:32;6.13;;;3.33;;
15486;SDS011;7845;53.698;10.078;2022-08-21T05:12:58;5.73;;;3.53;;
15486;SDS011;7845;53.698;10.078;2022-08-21T05:15:25;5.10;;;3.23;;
15486;SDS011;7845;53.698;10.078;2022-08-21T05:17:50;5.93;;;3.30;;
15486;SDS011;7845;53.698;10.078;2022-08-21T05:20:16;4.97;;;2.77;;
15486;SDS011;7845;53.698;10.078;2022-08-21T05:22:41;4.97;;;3.10;;
15486;SDS011;7845;53.698;10.078;2022-08-21T05:25:08;6.47;;;3.73;;
15486;SDS011;7845;53.698;10.078;2022-08-21T05:27:34;5.10;;;3.57;;
15486;SDS011;7845;53.698;10.078;2022-08-21T05:30:00;4.70;;;3.47;;
15486;SDS011;7845;53.698;10.078;2022-08-21T05:32:25;5.70;;;3.30;;
15486;SDS011;7845;53.698;10.078;2022-08-21T05:34:53;5.80;;;2.93;;
15486;SDS011;7845;53.698;10.078;2022-08-21T05:37:19;6.10;;;3.40;;
15486;SDS011;7845;53.698;10.078;2022-08-21T05:39:45;6.03;;;3.23;;
15486;SDS011;7845;53.698;10.078;2022-08-21T05:42:10;4.03;;;2.80;;
15486;SDS011;7845;53.698;10.078;2022-08-21T05:44:35;5.60;;;3.37;;
15486;SDS011;7845;53.698;10.078;2022-08-21T05:47:02;4.53;;;3.10;;
15486;SDS011;7845;53.698;10.078;2022-08-21T05:49:29;5.30;;;3.33;;
15486;SDS011;7845;53.698;10.078;2022-08-21T05:51:54;6.17;;;3.30;;
15486;SDS011;7845;53.698;10.078;2022-08-21T05:54:19;4.60;;;2.77;;
15486;SDS011;7845;53.698;10.078;2022-08-21T05:56:45;4.93;;;3.13;;
15486;SDS011;7845;53.698;10.078;2022-08-21T05:59:11;5.30;;;3.40;;
15486;SDS011;7845;53.698;10.078;2022-08-21T06:01:38;5.50;;;3.23;;
15486;SDS011;7845;53.698;10.078;2022-08-21T06:04:03;4.30;;;2.83;;
15486;SDS011;7845;53.698;10.078;2022-08-21T06:06:29;5.60;;;2.90;;
15486;SDS011;7845;53.698;10.078;2022-08-21T06:08:55;5.00;;;3.00;;
15486;SDS011;7845;53.698;10.078;2022-08-21T06:11:20;5.83;;;2.90;;
15486;SDS011;7845;53.698;10.078;2022-08-21T06:13:46;5.67;;;3.30;;
15486;SDS011;7845;53.698;10.078;2022-08-21T06:16:13;6.73;;;3.47;;
15486;SDS011;7845;53.698;10.078;2022-08-21T06:18:40;7.00;;;3.87;;
15486;SDS011;7845;53.698;10.078;2022-08-21T06:21:06;8.07;;;3.27;;
15486;SDS011;7845;53.698;10.078;2022-08-21T06:23:33;6.57;;;3.67;;
15486;SDS011;7845;53.698;10.078;2022-08-21T06:25:59;5.60;;;3.23;;
15486;SDS011;7845;53.698;10.078;2022-08-21T06:28:26;4.90;;;3.10;;
15486;SDS011;7845;53.698;10.078;2022-08-21T06:30:52;6.63;;;3.23;;
15486;SDS011;7845;53.698;10.078;2022-08-21T06:33:17;7.00;;;3.03;;
15486;SDS011;7845;53.698;10.078;2022-08-21T06:35:43;5.70;;;3.50;;
15486;SDS011;7845;53.698;10.078;2022-08-21T06:38:08;5.90;;;3.40;;
15486;SDS011;7845;53.698;10.078;2022-08-21T06:40:34;4.80;;;2.63;;
15486;SDS011;7845;53.698;10.078;2022-08-21T06:43:04;4.87;;;2.90;;
15486;SDS011;7845;53.698;10.078;2022-08-21T06:45:32;6.90;;;2.53;;
15486;SDS011;7845;53.698;10.078;2022-08-21T06:47:58;4.77;;;2.63;;
15486;SDS011;7845;53.698;10.078;2022-08-21T06:50:24;4.70;;;2.57;;
15486;SDS011;7845;53.698;10.078;2022-08-21T06:52:49;7.13;;;2.77;;
15486;SDS011;7845;53.698;10.078;2022-08-21T06:55:14;4.60;;;2.40;;
15486;SDS011;7845;53.698;10.078;2022-08-21T06:57:41;7.03;;;2.23;;
15486;SDS011;7845;53.698;10.078;2022-08-21T07:00:07;6.00;;;2.40;;
15486;SDS011;7845;53.698;10.078;2022-08-21T07:02:34;4.33;;;2.27;;
15486;SDS011;7845;53.698;10.078;2022-08-21T07:04:59;5.73;;;2.70;;
15486;SDS011;7845;53.698;10.078;2022-08-21T07:07:24;4.50;;;2.87;;
15486;SDS011;7845;53.698;10.078;2022-08-21T07:09:50;3.80;;;2.30;;
15486;SDS011;7845;53.698;10.078;2022-08-21T07:12:16;5.70;;;2.70;;
15486;SDS011;7845;53.698;10.078;2022-08-21T07:14:41;5.30;;;2.27;;
15486;SDS011;7845;53.698;10.078;2022-08-21T07:17:07;7.60;;;2.87;;
15486;SDS011;7845;53.698;10.078;2022-08-21T07:19:33;4.87;;;2.20;;
15486;SDS011;7845;53.698;10.078;2022-08-21T07:21:59;4.97;;;2.17;;
15486;SDS011;7845;53.698;10.078;2022-08-21T07:24:26;4.33;;;2.30;;
15486;SDS011;7845;53.698;10.078;2022-08-21T07:26:52;4.53;;;2.20;;
15486;SDS011;7845;53.698;10.078;2022-08-21T07:29:17;4.33;;;2.30;;
15486;SDS011;7845;53.698;10.078;2022-08-21T07:31:43;3.60;;;2.07;;
15486;SDS011;7845;53.698;10.078;2022-08-21T07:34:09;7.90;;;2.20;;
15486;SDS011;7845;53.698;10.078;2022-08-21T07:36:34;5.53;;;2.87;;
15486;SDS011;7845;53.698;10.078;2022-08-21T07:39:00;4.50;;;1.93;;
15486;SDS011;7845;53.698;10.078;2022-08-21T07:41:27;5.37;;;2.27;;
15486;SDS011;7845;53.698;10.078;2022-08-21T07:43:54;3.73;;;1.70;;
15486;SDS011;7845;53.698;10.078;2022-08-21T07:46:20;5.60;;;2.30;;
15486;SDS011;7845;53.698;10.078;2022-08-21T07:48:46;4.20;;;2.17;;
15486;SDS011;7845;53.698;10.078;2022-08-21T07:51:13;4.20;;;1.90;;
15486;SDS011;7845;53.698;10.078;2022-08-21T07:53:42;5.63;;;1.97;;
15486;SDS011;7845;53.698;10.078;2022-08-21T07:56:12;4.20;;;2.50;;
15486;SDS011;7845;53.698;10.078;2022-08-21T07:58:38;6.50;;;2.20;;
15486;SDS011;7845;53.698;10.078;2022-08-21T08:01:04;8.40;;;3.07;;
15486;SDS011;7845;53.698;10.078;2022-08-21T08:03:31;6.90;;;2.17;;
15486;SDS011;7845;53.698;10.078;2022-08-21T08:05:56;4.93;;;1.90;;
15486;SDS011;7845;53.698;10.078;2022-08-21T08:08:22;7.50;;;1.97;;
15486;SDS011;7845;53.698;10.078;2022-08-21T08:10:48;6.43;;;2.20;;
15486;SDS011;7845;53.698;10.078;2022-08-21T08:13:14;4.97;;;2.17;;
15486;SDS011;7845;53.698;10.078;2022-08-21T08:15:40;5.53;;;2.13;;
15486;SDS011;7845;53.698;10.078;2022-08-21T08:18:06;4.20;;;2.00;;
15486;SDS011;7845;53.698;10.078;2022-08-21T08:20:31;5.03;;;2.33;;
15486;SDS011;7845;53.698;10.078;2022-08-21T08:22:56;7.23;;;2.20;;
15486;SDS011;7845;53.698;10.078;2022-08-21T08:25:22;8.10;;;2.60;;
15486;SDS011;7845;53.698;10.078;2022-08-21T08:27:48;5.53;;;2.43;;
15486;SDS011;7845;53.698;10.078;2022-08-21T08:30:15;4.83;;;2.50;;
15486;SDS011;7845;53.698;10.078;2022-08-21T08:32:43;6.63;;;2.33;;
15486;SDS011;7845;53.698;10.078;2022-08-21T08:35:09;6.23;;;2.53;;
15486;SDS011;7845;53.698;10.078;2022-08-21T08:37:36;6.83;;;2.47;;
15486;SDS011;7845;53.698;10.078;2022-08-21T08:40:11;4.73;;;1.90;;
15486;SDS011;7845;53.698;10.078;2022-08-21T08:42:38;5.90;;;2.20;;
15486;SDS011;7845;53.698;10.078;2022-08-21T08:45:05;4.60;;;2.00;;
15486;SDS011;7845;53.698;10.078;2022-08-21T08:47:34;7.23;;;2.07;;
15486;SDS011;7845;53.698;10.078;2022-08-21T08:50:25;5.97;;;2.03;;
15486;SDS011;7845;53.698;10.078;2022-08-21T08:53:02;6.13;;;2.47;;
15486;SDS011;7845;53.698;10.078;2022-08-21T08:55:35;5.90;;;2.30;;
15486;SDS011;7845;53.698;10.078;2022-08-21T08:58:02;4.57;;;1.83;;
15486;SDS011;7845;53.698;10.078;2022-08-21T09:00:29;5.63;;;2.20;;
15486;SDS011;7845;53.698;10.078;2022-08-21T09:02:56;5.60;;;2.17;;
15486;SDS011;7845;53.698;10.078;2022-08-21T09:05:26;4.80;;;2.00;;
15486;SDS011;7845;53.698;10.078;2022-08-21T09:16:39;7.27;;;1.93;;
15486;SDS011;7845;53.698;10.078;2022-08-21T09:26:57;4.47;;;2.40;;
15486;SDS011;7845;53.698;10.078;2022-08-21T09:29:39;4.70;;;2.20;;
15486;SDS011;7845;53.698;10.078;2022-08-21T09:32:20;5.73;;;1.90;;
15486;SDS011;7845;53.698;10.078;2022-08-21T09:37:29;4.27;;;1.90;;
15486;SDS011;7845;53.698;10.078;2022-08-21T09:39:56;4.50;;;1.90;;
15486;SDS011;7845;53.698;10.078;2022-08-21T09:42:31;5.47;;;2.50;;
15486;SDS011;7845;53.698;10.078;2022-08-21T09:47:35;4.50;;;2.17;;
15486;SDS011;7845;53.698;10.078;2022-08-21T09:50:07;8.23;;;2.43;;
15486;SDS011;7845;53.698;10.078;2022-08-21T09:52:49;7.93;;;2.47;;
15486;SDS011;7845;53.698;10.078;2022-08-21T09:55:29;4.03;;;1.80;;
15486;SDS011;7845;53.698;10.078;2022-08-21T09:58:16;5.70;;;2.07;;
15486;SDS011;7845;53.698;10.078;2022-08-21T10:00:43;6.60;;;2.80;;
15486;SDS011;7845;53.698;10.078;2022-08-21T10:03:19;6.83;;;2.67;;
15486;SDS011;7845;53.698;10.078;2022-08-21T10:06:05;7.23;;;2.77;;
15486;SDS011;7845;53.698;10.078;2022-08-21T10:08:36;5.83;;;2.50;;
15486;SDS011;7845;53.698;10.078;2022-08-21T10:11:05;5.13;;;2.07;;
15486;SDS011;7845;53.698;10.078;2022-08-21T10:13:40;6.73;;;2.70;;
15486;SDS011;7845;53.698;10.078;2022-08-21T10:16:20;4.80;;;2.73;;
15486;SDS011;7845;53.698;10.078;2022-08-21T10:19:02;5.37;;;2.67;;
15486;SDS011;7845;53.698;10.078;2022-08-21T10:27:13;6.13;;;2.20;;
15486;SDS011;7845;53.698;10.078;2022-08-21T10:30:13;6.73;;;2.20;;
15486;SDS011;7845;53.698;10.078;2022-08-21T10:32:51;5.13;;;2.30;;
15486;SDS011;7845;53.698;10.078;2022-08-21T10:36:02;5.47;;;2.33;;
15486;SDS011;7845;53.698;10.078;2022-08-21T10:38:51;4.83;;;2.03;;
15486;SDS011;7845;53.698;10.078;2022-08-21T10:41:23;5.03;;;2.20;;
15486;SDS011;7845;53.698;10.078;2022-08-21T10:44:23;6.07;;;2.30;;
15486;SDS011;7845;53.698;10.078;2022-08-21T10:49:35;5.00;;;2.30;;
15486;SDS011;7845;53.698;10.078;2022-08-21T10:52:42;6.33;;;2.30;;
15486;SDS011;7845;53.698;10.078;2022-08-21T10:55:32;5.37;;;2.50;;
15486;SDS011;7845;53.698;10.078;2022-08-21T10:58:08;4.63;;;2.20;;
15486;SDS011;7845;53.698;10.078;2022-08-21T11:03:21;9.60;;;2.80;;
15486;SDS011;7845;53.698;10.078;2022-08-21T11:05:57;5.73;;;2.07;;
15486;SDS011;7845;53.698;10.078;2022-08-21T11:08:35;6.57;;;2.47;;
15486;SDS011;7845;53.698;10.078;2022-08-21T11:14:17;4.80;;;2.13;;
15486;SDS011;7845;53.698;10.078;2022-08-21T11:16:51;4.90;;;2.00;;
15486;SDS011;7845;53.698;10.078;2022-08-21T11:22:00;7.00;;;2.90;;
15486;SDS011;7845;53.698;10.078;2022-08-21T11:24:42;4.07;;;1.63;;
15486;SDS011;7845;53.698;10.078;2022-08-21T11:27:28;4.03;;;1.70;;
15486;SDS011;7845;53.698;10.078;2022-08-21T11:30:01;4.87;;;2.17;;
15486;SDS011;7845;53.698;10.078;2022-08-21T11:32:36;4.13;;;1.90;;
15486;SDS011;7845;53.698;10.078;2022-08-21T11:37:46;4.23;;;1.87;;
15486;SDS011;7845;53.698;10.078;2022-08-21T11:45:47;3.90;;;1.77;;
15486;SDS011;7845;53.698;10.078;2022-08-21T11:51:05;4.83;;;2.00;;
15486;SDS011;7845;53.698;10.078;2022-08-21T11:53:38;3.40;;;1.87;;
15486;SDS011;7845;53.698;10.078;2022-08-21T11:56:17;4.10;;;1.77;;
15486;SDS011;7845;53.698;10.078;2022-08-21T11:58:49;5.90;;;2.00;;
15486;SDS011;7845;53.698;10.078;2022-08-21T12:01:21;5.13;;;1.87;;
15486;SDS011;7845;53.698;10.078;2022-08-21T12:04:10;5.67;;;1.93;;
15486;SDS011;7845;53.698;10.078;2022-08-21T12:06:52;2.90;;;1.40;;
15486;SDS011;7845;53.698;10.078;2022-08-21T12:11:50;5.63;;;1.80;;
15486;SDS011;7845;53.698;10.078;2022-08-21T12:14:34;3.70;;;1.30;;
15486;SDS011;7845;53.698;10.078;2022-08-21T12:17:04;5.03;;;1.40;;
15486;SDS011;7845;53.698;10.078;2022-08-21T12:19:31;3.50;;;1.50;;
15486;SDS011;7845;53.698;10.078;2022-08-21T12:27:14;4.50;;;1.70;;
15486;SDS011;7845;53.698;10.078;2022-08-21T12:29:50;5.10;;;2.00;;
15486;SDS011;7845;53.698;10.078;2022-08-21T12:40:17;5.00;;;1.80;;
15486;SDS011;7845;53.698;10.078;2022-08-21T12:42:46;7.47;;;1.90;;
15486;SDS011;7845;53.698;10.078;2022-08-21T12:45:18;3.50;;;1.50;;
15486;SDS011;7845;53.698;10.078;2022-08-21T12:47:48;4.00;;;1.77;;
15486;SDS011;7845;53.698;10.078;2022-08-21T12:50:22;4.50;;;1.80;;
15486;SDS011;7845;53.698;10.078;2022-08-21T12:55:35;3.23;;;1.50;;
15486;SDS011;7845;53.698;10.078;2022-08-21T12:58:06;3.60;;;1.50;;
15486;SDS011;7845;53.698;10.078;2022-08-21T13:00:32;4.00;;;1.53;;
15486;SDS011;7845;53.698;10.078;2022-08-21T13:02:58;4.83;;;2.00;;
15486;SDS011;7845;53.698;10.078;2022-08-21T13:05:32;4.07;;;1.70;;
15486;SDS011;7845;53.698;10.078;2022-08-21T13:07:59;4.40;;;1.60;;
15486;SDS011;7845;53.698;10.078;2022-08-21T13:10:30;4.63;;;1.30;;
15486;SDS011;7845;53.698;10.078;2022-08-21T13:12:58;5.00;;;1.90;;
15486;SDS011;7845;53.698;10.078;2022-08-21T13:15:29;3.23;;;1.43;;
15486;SDS011;7845;53.698;10.078;2022-08-21T13:17:57;5.00;;;2.00;;
15486;SDS011;7845;53.698;10.078;2022-08-21T13:20:29;3.63;;;1.30;;
15486;SDS011;7845;53.698;10.078;2022-08-21T13:22:56;3.20;;;1.37;;
15486;SDS011;7845;53.698;10.078;2022-08-21T13:25:25;4.07;;;1.47;;
15486;SDS011;7845;53.698;10.078;2022-08-21T13:28:09;6.17;;;1.40;;
15486;SDS011;7845;53.698;10.078;2022-08-21T13:30:43;3.70;;;1.50;;
15486;SDS011;7845;53.698;10.078;2022-08-21T13:33:12;3.60;;;1.30;;
15486;SDS011;7845;53.698;10.078;2022-08-21T13:38:17;4.00;;;1.43;;
15486;SDS011;7845;53.698;10.078;2022-08-21T13:40:49;4.50;;;1.33;;
15486;SDS011;7845;53.698;10.078;2022-08-21T13:43:18;3.33;;;1.37;;
15486;SDS011;7845;53.698;10.078;2022-08-21T13:45:49;3.60;;;1.30;;
15486;SDS011;7845;53.698;10.078;2022-08-21T13:48:16;3.40;;;1.43;;
15486;SDS011;7845;53.698;10.078;2022-08-21T13:50:42;3.20;;;1.30;;
15486;SDS011;7845;53.698;10.078;2022-08-21T13:53:19;3.10;;;1.20;;
15486;SDS011;7845;53.698;10.078;2022-08-21T13:55:47;4.10;;;1.20;;
15486;SDS011;7845;53.698;10.078;2022-08-21T13:58:13;3.70;;;1.33;;
15486;SDS011;7845;53.698;10.078;2022-08-21T14:00:50;3.40;;;1.10;;
15486;SDS011;7845;53.698;10.078;2022-08-21T14:03:26;3.83;;;1.83;;
15486;SDS011;7845;53.698;10.078;2022-08-21T14:05:57;3.13;;;1.20;;
15486;SDS011;7845;53.698;10.078;2022-08-21T14:08:33;3.40;;;1.10;;
15486;SDS011;7845;53.698;10.078;2022-08-21T14:11:02;4.60;;;1.40;;
15486;SDS011;7845;53.698;10.078;2022-08-21T14:13:33;3.10;;;1.20;;
15486;SDS011;7845;53.698;10.078;2022-08-21T14:16:13;4.07;;;1.27;;
15486;SDS011;7845;53.698;10.078;2022-08-21T14:18:51;2.93;;;1.40;;
15486;SDS011;7845;53.698;10.078;2022-08-21T14:21:34;6.30;;;1.40;;
15486;SDS011;7845;53.698;10.078;2022-08-21T14:24:09;5.40;;;1.60;;
15486;SDS011;7845;53.698;10.078;2022-08-21T14:26:36;3.20;;;1.40;;
15486;SDS011;7845;53.698;10.078;2022-08-21T14:29:09;3.00;;;1.30;;
15486;SDS011;7845;53.698;10.078;2022-08-21T14:31:35;2.50;;;1.20;;
15486;SDS011;7845;53.698;10.078;2022-08-21T14:34:00;4.60;;;1.37;;
15486;SDS011;7845;53.698;10.078;2022-08-21T14:36:27;3.53;;;1.27;;
15486;SDS011;7845;53.698;10.078;2022-08-21T14:38:52;4.23;;;1.30;;
15486;SDS011;7845;53.698;10.078;2022-08-21T14:41:19;4.00;;;1.60;;
15486;SDS011;7845;53.698;10.078;2022-08-21T14:43:47;4.03;;;1.27;;
15486;SDS011;7845;53.698;10.078;2022-08-21T14:46:15;3.33;;;1.37;;
15486;SDS011;7845;53.698;10.078;2022-08-21T14:48:45;4.00;;;1.63;;
15486;SDS011;7845;53.698;10.078;2022-08-21T14:51:11;3.50;;;1.27;;
15486;SDS011;7845;53.698;10.078;2022-08-21T14:53:38;3.10;;;1.30;;
15486;SDS011;7845;53.698;10.078;2022-08-21T14:56:04;3.30;;;1.13;;
15486;SDS011;7845;53.698;10.078;2022-08-21T14:58:29;3.03;;;1.20;;
15486;SDS011;7845;53.698;10.078;2022-08-21T15:00:55;3.33;;;0.90;;
15486;SDS011;7845;53.698;10.078;2022-08-21T15:03:22;3.73;;;1.27;;
15486;SDS011;7845;53.698;10.078;2022-08-21T15:05:48;2.97;;;1.10;;
15486;SDS011;7845;53.698;10.078;2022-08-21T15:08:14;3.27;;;1.20;;
15486;SDS011;7845;53.698;10.078;2022-08-21T15:10:39;5.37;;;1.60;;
15486;SDS011;7845;53.698;10.078;2022-08-21T15:13:04;2.70;;;1.03;;
15486;SDS011;7845;53.698;10.078;2022-08-21T15:15:32;4.90;;;1.70;;
15486;SDS011;7845;53.698;10.078;2022-08-21T15:18:03;3.67;;;1.37;;
15486;SDS011;7845;53.698;10.078;2022-08-21T15:20:29;4.93;;;1.60;;
15486;SDS011;7845;53.698;10.078;2022-08-21T15:22:55;6.03;;;1.30;;
15486;SDS011;7845;53.698;10.078;2022-08-21T15:25:20;3.87;;;1.30;;
15486;SDS011;7845;53.698;10.078;2022-08-21T15:27:45;4.90;;;1.33;;
15486;SDS011;7845;53.698;10.078;2022-08-21T15:30:11;3.00;;;1.23;;
15486;SDS011;7845;53.698;10.078;2022-08-21T15:32:36;2.50;;;1.00;;
15486;SDS011;7845;53.698;10.078;2022-08-21T15:35:03;2.80;;;1.20;;
15486;SDS011;7845;53.698;10.078;2022-08-21T15:37:29;2.70;;;0.90;;
15486;SDS011;7845;53.698;10.078;2022-08-21T15:39:54;3.90;;;1.33;;
15486;SDS011;7845;53.698;10.078;2022-08-21T15:42:20;2.70;;;0.93;;
15486;SDS011;7845;53.698;10.078;2022-08-21T15:44:46;3.77;;;1.60;;
15486;SDS011;7845;53.698;10.078;2022-08-21T15:47:13;6.70;;;1.30;;
15486;SDS011;7845;53.698;10.078;2022-08-21T15:49:40;4.23;;;1.30;;
15486;SDS011;7845;53.698;10.078;2022-08-21T15:52:09;3.10;;;1.23;;
15486;SDS011;7845;53.698;10.078;2022-08-21T15:54:35;3.67;;;1.10;;
15486;SDS011;7845;53.698;10.078;2022-08-21T15:57:01;3.70;;;1.27;;
15486;SDS011;7845;53.698;10.078;2022-08-21T15:59:37;2.83;;;1.10;;
15486;SDS011;7845;53.698;10.078;2022-08-21T16:02:05;3.80;;;1.30;;
15486;SDS011;7845;53.698;10.078;2022-08-21T16:04:37;2.90;;;1.37;;
15486;SDS011;7845;53.698;10.078;2022-08-21T16:07:03;3.70;;;1.60;;
15486;SDS011;7845;53.698;10.078;2022-08-21T16:09:28;4.67;;;1.50;;